sensor_id;sensor_type;location;lat;lon;timestamp;P1;durP1;ratioP1;P2;durP2;ratioP2
20649;SDS011;10484;48.736;9.332;2024-01-15T00:01:28;51.13;;;25.17;;
20649;SDS011;10484;48.736;9.332;2024-01-15T00:03:54;45.40;;;21.67;;
20649;SDS011;10484;48.736;9.332;2024-01-15T00:06:20;41.63;;;23.10;;
20649;SDS011;10484;48.736;9.332;2024-01-15T00:08:46;43.50;;;22.87;;
20649;SDS011;10484;48.736;9.332;2024-01-15T00:11:11;40.07;;;21.53;;
20649;SDS011;10484;48.736;9.332;2024-01-15T00:13:37;45.63;;;24.60;;
20649;SDS011;10484;48.736;9.332;2024-01-15T00:16:03;49.73;;;25.80;;
20649;SDS011;10484;48.736;9.332;2024-01-15T00:18:29;43.28;;;24.58;;
20649;SDS011;10484;48.736;9.332;2024-01-15T00:20:55;51.10;;;25.07;;
20649;SDS011;10484;48.736;9.332;2024-01-15T00:23:21;46.95;;;23.65;;
20649;SDS011;10484;48.736;9.332;2024-01-15T00:25:47;47.75;;;24.15;;
20649;SDS011;10484;48.736;9.332;2024-01-15T00:28:13;46.90;;;24.90;;
20649;SDS011;10484;48.736;9.332;2024-01-15T00:30:38;49.80;;;24.43;;
20649;SDS011;10484;48.736;9.332;2024-01-15T00:33:04;44.87;;;23.37;;
20649;SDS011;10484;48.736;9.332;2024-01-15T00:35:29;46.00;;;22.77;;
20649;SDS011;10484;48.736;9.332;2024-01-15T00:37:55;42.67;;;23.17;;
20649;SDS011;10484;48.736;9.332;2024-01-15T00:40:21;49.33;;;25.00;;
20649;SDS011;10484;48.736;9.332;2024-01-15T00:42:46;45.60;;;23.27;;
20649;SDS011;10484;48.736;9.332;2024-01-15T00:45:12;36.57;;;22.20;;
20649;SDS011;10484;48.736;9.332;2024-01-15T00:47:37;46.17;;;24.23;;
20649;SDS011;10484;48.736;9.332;2024-01-15T00:50:03;42.43;;;22.43;;
20649;SDS011;10484;48.736;9.332;2024-01-15T00:52:29;43.30;;;23.83;;
20649;SDS011;10484;48.736;9.332;2024-01-15T00:54:55;42.77;;;23.80;;
20649;SDS011;10484;48.736;9.332;2024-01-15T00:57:20;40.20;;;22.90;;
20649;SDS011;10484;48.736;9.332;2024-01-15T00:59:46;41.27;;;22.63;;
20649;SDS011;10484;48.736;9.332;2024-01-15T01:02:13;41.83;;;22.10;;
20649;SDS011;10484;48.736;9.332;2024-01-15T01:04:38;40.43;;;23.10;;
20649;SDS011;10484;48.736;9.332;2024-01-15T01:07:05;37.88;;;22.15;;
20649;SDS011;10484;48.736;9.332;2024-01-15T01:09:30;43.03;;;21.73;;
20649;SDS011;10484;48.736;9.332;2024-01-15T01:11:56;42.07;;;23.17;;
20649;SDS011;10484;48.736;9.332;2024-01-15T01:14:22;41.03;;;22.47;;
20649;SDS011;10484;48.736;9.332;2024-01-15T01:16:47;46.90;;;23.00;;
20649;SDS011;10484;48.736;9.332;2024-01-15T01:19:13;46.97;;;23.73;;
20649;SDS011;10484;48.736;9.332;2024-01-15T01:21:38;39.30;;;21.90;;
20649;SDS011;10484;48.736;9.332;2024-01-15T01:24:04;42.57;;;23.23;;
20649;SDS011;10484;48.736;9.332;2024-01-15T01:26:30;41.27;;;21.80;;
20649;SDS011;10484;48.736;9.332;2024-01-15T01:28:56;44.37;;;23.40;;
20649;SDS011;10484;48.736;9.332;2024-01-15T01:31:22;43.70;;;22.30;;
20649;SDS011;10484;48.736;9.332;2024-01-15T01:33:48;42.25;;;22.20;;
20649;SDS011;10484;48.736;9.332;2024-01-15T01:36:14;45.33;;;23.00;;
20649;SDS011;10484;48.736;9.332;2024-01-15T01:38:40;38.73;;;21.27;;
20649;SDS011;10484;48.736;9.332;2024-01-15T01:41:06;38.47;;;21.67;;
20649;SDS011;10484;48.736;9.332;2024-01-15T01:43:32;38.15;;;20.83;;
20649;SDS011;10484;48.736;9.332;2024-01-15T01:45:58;37.13;;;20.23;;
20649;SDS011;10484;48.736;9.332;2024-01-15T01:48:25;43.15;;;22.63;;
20649;SDS011;10484;48.736;9.332;2024-01-15T01:50:53;45.28;;;22.05;;
20649;SDS011;10484;48.736;9.332;2024-01-15T01:53:19;33.22;;;18.20;;
20649;SDS011;10484;48.736;9.332;2024-01-15T01:55:46;37.95;;;20.30;;
20649;SDS011;10484;48.736;9.332;2024-01-15T01:58:13;36.30;;;18.92;;
20649;SDS011;10484;48.736;9.332;2024-01-15T02:00:39;29.25;;;16.05;;
20649;SDS011;10484;48.736;9.332;2024-01-15T02:03:05;33.55;;;17.45;;
20649;SDS011;10484;48.736;9.332;2024-01-15T02:05:31;25.50;;;15.50;;
20649;SDS011;10484;48.736;9.332;2024-01-15T02:07:57;32.67;;;16.48;;
20649;SDS011;10484;48.736;9.332;2024-01-15T02:10:23;26.43;;;14.53;;
20649;SDS011;10484;48.736;9.332;2024-01-15T02:12:49;27.67;;;14.73;;
20649;SDS011;10484;48.736;9.332;2024-01-15T02:15:14;23.87;;;14.40;;
20649;SDS011;10484;48.736;9.332;2024-01-15T02:17:56;25.07;;;13.57;;
20649;SDS011;10484;48.736;9.332;2024-01-15T02:20:25;28.88;;;14.18;;
20649;SDS011;10484;48.736;9.332;2024-01-15T02:22:51;24.20;;;13.77;;
20649;SDS011;10484;48.736;9.332;2024-01-15T02:25:17;20.73;;;12.27;;
20649;SDS011;10484;48.736;9.332;2024-01-15T02:27:43;22.20;;;11.73;;
20649;SDS011;10484;48.736;9.332;2024-01-15T02:30:11;22.90;;;12.43;;
20649;SDS011;10484;48.736;9.332;2024-01-15T02:32:37;16.73;;;10.50;;
20649;SDS011;10484;48.736;9.332;2024-01-15T02:35:03;22.33;;;11.50;;
20649;SDS011;10484;48.736;9.332;2024-01-15T02:37:29;21.33;;;12.03;;
20649;SDS011;10484;48.736;9.332;2024-01-15T02:39:55;21.80;;;11.23;;
20649;SDS011;10484;48.736;9.332;2024-01-15T02:42:20;20.40;;;11.17;;
20649;SDS011;10484;48.736;9.332;2024-01-15T02:44:46;19.30;;;10.00;;
20649;SDS011;10484;48.736;9.332;2024-01-15T02:47:13;17.17;;;8.80;;
20649;SDS011;10484;48.736;9.332;2024-01-15T02:49:39;19.47;;;9.70;;
20649;SDS011;10484;48.736;9.332;2024-01-15T02:52:05;17.70;;;10.17;;
20649;SDS011;10484;48.736;9.332;2024-01-15T02:54:31;16.10;;;9.80;;
20649;SDS011;10484;48.736;9.332;2024-01-15T02:56:56;19.47;;;10.57;;
20649;SDS011;10484;48.736;9.332;2024-01-15T02:59:22;18.93;;;9.50;;
20649;SDS011;10484;48.736;9.332;2024-01-15T03:01:47;16.30;;;9.47;;
20649;SDS011;10484;48.736;9.332;2024-01-15T03:04:13;20.23;;;11.80;;
20649;SDS011;10484;48.736;9.332;2024-01-15T03:06:38;20.60;;;11.50;;
20649;SDS011;10484;48.736;9.332;2024-01-15T03:09:04;16.63;;;9.67;;
20649;SDS011;10484;48.736;9.332;2024-01-15T03:11:36;16.02;;;10.13;;
20649;SDS011;10484;48.736;9.332;2024-01-15T03:14:02;16.92;;;9.88;;
20649;SDS011;10484;48.736;9.332;2024-01-15T03:16:28;18.97;;;10.43;;
20649;SDS011;10484;48.736;9.332;2024-01-15T03:18:53;18.37;;;9.60;;
20649;SDS011;10484;48.736;9.332;2024-01-15T03:21:19;18.73;;;9.20;;
20649;SDS011;10484;48.736;9.332;2024-01-15T03:23:44;18.60;;;10.70;;
20649;SDS011;10484;48.736;9.332;2024-01-15T03:26:10;18.87;;;9.23;;
20649;SDS011;10484;48.736;9.332;2024-01-15T03:28:35;14.63;;;8.80;;
20649;SDS011;10484;48.736;9.332;2024-01-15T03:31:01;16.77;;;9.60;;
20649;SDS011;10484;48.736;9.332;2024-01-15T03:33:26;16.10;;;9.57;;
20649;SDS011;10484;48.736;9.332;2024-01-15T03:35:52;17.13;;;9.40;;
20649;SDS011;10484;48.736;9.332;2024-01-15T03:38:17;14.23;;;8.80;;
20649;SDS011;10484;48.736;9.332;2024-01-15T03:40:43;16.40;;;9.47;;
20649;SDS011;10484;48.736;9.332;2024-01-15T03:43:09;14.63;;;8.23;;
20649;SDS011;10484;48.736;9.332;2024-01-15T03:45:34;16.57;;;9.43;;
20649;SDS011;10484;48.736;9.332;2024-01-15T03:48:00;17.30;;;8.73;;
20649;SDS011;10484;48.736;9.332;2024-01-15T03:50:25;11.97;;;7.63;;
20649;SDS011;10484;48.736;9.332;2024-01-15T03:52:51;16.27;;;11.00;;
20649;SDS011;10484;48.736;9.332;2024-01-15T03:55:16;18.73;;;10.17;;
20649;SDS011;10484;48.736;9.332;2024-01-15T03:57:42;15.53;;;9.07;;
20649;SDS011;10484;48.736;9.332;2024-01-15T04:00:07;14.43;;;9.17;;
20649;SDS011;10484;48.736;9.332;2024-01-15T04:02:33;14.85;;;9.48;;
20649;SDS011;10484;48.736;9.332;2024-01-15T04:04:59;17.70;;;9.13;;
20649;SDS011;10484;48.736;9.332;2024-01-15T04:07:25;16.33;;;9.60;;
20649;SDS011;10484;48.736;9.332;2024-01-15T04:09:50;13.77;;;7.60;;
20649;SDS011;10484;48.736;9.332;2024-01-15T04:12:16;15.87;;;8.93;;
20649;SDS011;10484;48.736;9.332;2024-01-15T04:14:41;17.57;;;8.90;;
20649;SDS011;10484;48.736;9.332;2024-01-15T04:17:07;16.30;;;8.97;;
20649;SDS011;10484;48.736;9.332;2024-01-15T04:19:32;16.97;;;8.73;;
20649;SDS011;10484;48.736;9.332;2024-01-15T04:21:58;17.63;;;9.07;;
20649;SDS011;10484;48.736;9.332;2024-01-15T04:24:23;16.50;;;9.17;;
20649;SDS011;10484;48.736;9.332;2024-01-15T04:26:49;12.77;;;8.27;;
20649;SDS011;10484;48.736;9.332;2024-01-15T04:29:14;16.27;;;9.37;;
20649;SDS011;10484;48.736;9.332;2024-01-15T04:31:40;15.48;;;8.63;;
20649;SDS011;10484;48.736;9.332;2024-01-15T04:34:06;18.40;;;9.00;;
20649;SDS011;10484;48.736;9.332;2024-01-15T04:36:32;18.77;;;9.00;;
20649;SDS011;10484;48.736;9.332;2024-01-15T04:39:03;15.73;;;9.10;;
20649;SDS011;10484;48.736;9.332;2024-01-15T04:41:29;13.77;;;8.30;;
20649;SDS011;10484;48.736;9.332;2024-01-15T04:43:55;14.77;;;8.97;;
20649;SDS011;10484;48.736;9.332;2024-01-15T04:46:20;17.27;;;9.27;;
20649;SDS011;10484;48.736;9.332;2024-01-15T04:48:46;18.23;;;9.40;;
20649;SDS011;10484;48.736;9.332;2024-01-15T04:51:12;18.90;;;9.50;;
20649;SDS011;10484;48.736;9.332;2024-01-15T04:53:37;15.70;;;9.37;;
20649;SDS011;10484;48.736;9.332;2024-01-15T04:56:03;19.20;;;10.00;;
20649;SDS011;10484;48.736;9.332;2024-01-15T04:58:29;19.00;;;9.90;;
20649;SDS011;10484;48.736;9.332;2024-01-15T05:00:54;15.07;;;8.93;;
20649;SDS011;10484;48.736;9.332;2024-01-15T05:03:20;16.07;;;8.90;;
20649;SDS011;10484;48.736;9.332;2024-01-15T05:05:45;20.23;;;9.60;;
20649;SDS011;10484;48.736;9.332;2024-01-15T05:08:11;15.03;;;8.47;;
20649;SDS011;10484;48.736;9.332;2024-01-15T05:10:36;17.30;;;9.47;;
20649;SDS011;10484;48.736;9.332;2024-01-15T05:13:02;19.07;;;9.07;;
20649;SDS011;10484;48.736;9.332;2024-01-15T05:15:28;13.03;;;8.13;;
20649;SDS011;10484;48.736;9.332;2024-01-15T05:17:53;14.93;;;8.50;;
20649;SDS011;10484;48.736;9.332;2024-01-15T05:20:19;18.90;;;10.23;;
20649;SDS011;10484;48.736;9.332;2024-01-15T05:22:45;16.27;;;9.47;;
20649;SDS011;10484;48.736;9.332;2024-01-15T05:25:10;14.63;;;9.10;;
20649;SDS011;10484;48.736;9.332;2024-01-15T05:27:36;17.25;;;10.55;;
20649;SDS011;10484;48.736;9.332;2024-01-15T05:30:02;15.57;;;8.97;;
20649;SDS011;10484;48.736;9.332;2024-01-15T05:32:28;15.55;;;9.15;;
20649;SDS011;10484;48.736;9.332;2024-01-15T05:34:54;15.23;;;9.17;;
20649;SDS011;10484;48.736;9.332;2024-01-15T05:37:20;17.30;;;9.80;;
20649;SDS011;10484;48.736;9.332;2024-01-15T05:39:45;16.37;;;9.43;;
20649;SDS011;10484;48.736;9.332;2024-01-15T05:42:11;20.27;;;9.70;;
20649;SDS011;10484;48.736;9.332;2024-01-15T05:44:36;18.17;;;9.73;;
20649;SDS011;10484;48.736;9.332;2024-01-15T05:47:02;14.67;;;9.00;;
20649;SDS011;10484;48.736;9.332;2024-01-15T05:49:29;15.70;;;8.70;;
20649;SDS011;10484;48.736;9.332;2024-01-15T05:51:54;17.00;;;9.30;;
20649;SDS011;10484;48.736;9.332;2024-01-15T05:54:20;20.53;;;11.53;;
20649;SDS011;10484;48.736;9.332;2024-01-15T05:56:46;15.03;;;9.83;;
20649;SDS011;10484;48.736;9.332;2024-01-15T05:59:11;19.20;;;9.80;;
20649;SDS011;10484;48.736;9.332;2024-01-15T06:01:37;20.53;;;11.10;;
20649;SDS011;10484;48.736;9.332;2024-01-15T06:04:03;17.90;;;9.87;;
20649;SDS011;10484;48.736;9.332;2024-01-15T06:06:28;19.77;;;11.53;;
20649;SDS011;10484;48.736;9.332;2024-01-15T06:08:54;18.63;;;10.30;;
20649;SDS011;10484;48.736;9.332;2024-01-15T06:11:19;18.77;;;11.30;;
20649;SDS011;10484;48.736;9.332;2024-01-15T06:13:45;17.00;;;10.13;;
20649;SDS011;10484;48.736;9.332;2024-01-15T06:16:14;19.70;;;12.00;;
20649;SDS011;10484;48.736;9.332;2024-01-15T06:18:41;16.55;;;10.60;;
20649;SDS011;10484;48.736;9.332;2024-01-15T06:21:07;16.33;;;9.30;;
20649;SDS011;10484;48.736;9.332;2024-01-15T06:23:35;18.83;;;10.77;;
20649;SDS011;10484;48.736;9.332;2024-01-15T06:26:02;17.15;;;10.25;;
20649;SDS011;10484;48.736;9.332;2024-01-15T06:28:28;17.02;;;10.18;;
20649;SDS011;10484;48.736;9.332;2024-01-15T06:30:54;17.20;;;10.43;;
20649;SDS011;10484;48.736;9.332;2024-01-15T06:33:19;12.90;;;9.00;;
20649;SDS011;10484;48.736;9.332;2024-01-15T06:35:45;17.00;;;10.03;;
20649;SDS011;10484;48.736;9.332;2024-01-15T06:38:11;13.90;;;8.60;;
20649;SDS011;10484;48.736;9.332;2024-01-15T06:40:36;17.03;;;9.30;;
20649;SDS011;10484;48.736;9.332;2024-01-15T06:43:02;19.07;;;9.90;;
20649;SDS011;10484;48.736;9.332;2024-01-15T06:45:27;15.83;;;9.67;;
20649;SDS011;10484;48.736;9.332;2024-01-15T06:47:53;16.17;;;10.30;;
20649;SDS011;10484;48.736;9.332;2024-01-15T06:50:18;17.20;;;10.77;;
20649;SDS011;10484;48.736;9.332;2024-01-15T06:52:44;14.93;;;10.30;;
20649;SDS011;10484;48.736;9.332;2024-01-15T06:55:10;16.23;;;10.47;;
20649;SDS011;10484;48.736;9.332;2024-01-15T06:57:35;17.57;;;10.27;;
20649;SDS011;10484;48.736;9.332;2024-01-15T07:00:01;16.57;;;10.27;;
20649;SDS011;10484;48.736;9.332;2024-01-15T07:02:27;18.02;;;10.60;;
20649;SDS011;10484;48.736;9.332;2024-01-15T07:04:53;15.60;;;9.63;;
20649;SDS011;10484;48.736;9.332;2024-01-15T07:07:18;19.30;;;9.97;;
20649;SDS011;10484;48.736;9.332;2024-01-15T07:09:44;16.40;;;9.50;;
20649;SDS011;10484;48.736;9.332;2024-01-15T07:12:10;15.03;;;9.60;;
20649;SDS011;10484;48.736;9.332;2024-01-15T07:14:35;15.40;;;10.07;;
20649;SDS011;10484;48.736;9.332;2024-01-15T07:17:01;17.03;;;10.33;;
20649;SDS011;10484;48.736;9.332;2024-01-15T07:19:26;15.13;;;9.23;;
20649;SDS011;10484;48.736;9.332;2024-01-15T07:21:52;15.98;;;9.18;;
20649;SDS011;10484;48.736;9.332;2024-01-15T07:24:18;16.00;;;9.20;;
20649;SDS011;10484;48.736;9.332;2024-01-15T07:26:43;12.07;;;8.77;;
20649;SDS011;10484;48.736;9.332;2024-01-15T07:29:09;13.20;;;8.73;;
20649;SDS011;10484;48.736;9.332;2024-01-15T07:31:35;18.10;;;10.50;;
20649;SDS011;10484;48.736;9.332;2024-01-15T07:34:00;11.50;;;7.30;;
20649;SDS011;10484;48.736;9.332;2024-01-15T07:36:26;14.47;;;7.90;;
20649;SDS011;10484;48.736;9.332;2024-01-15T07:38:51;17.23;;;9.60;;
20649;SDS011;10484;48.736;9.332;2024-01-15T07:41:17;13.10;;;8.57;;
20649;SDS011;10484;48.736;9.332;2024-01-15T07:43:42;9.60;;;7.17;;
20649;SDS011;10484;48.736;9.332;2024-01-15T07:46:08;10.50;;;7.23;;
20649;SDS011;10484;48.736;9.332;2024-01-15T07:48:34;13.60;;;7.80;;
20649;SDS011;10484;48.736;9.332;2024-01-15T07:50:59;14.70;;;7.63;;
20649;SDS011;10484;48.736;9.332;2024-01-15T07:53:25;11.07;;;6.93;;
20649;SDS011;10484;48.736;9.332;2024-01-15T07:55:50;14.77;;;8.20;;
20649;SDS011;10484;48.736;9.332;2024-01-15T07:58:16;12.47;;;7.70;;
20649;SDS011;10484;48.736;9.332;2024-01-15T08:00:42;10.90;;;6.90;;
20649;SDS011;10484;48.736;9.332;2024-01-15T08:03:07;15.80;;;8.27;;
20649;SDS011;10484;48.736;9.332;2024-01-15T08:05:33;15.03;;;7.57;;
20649;SDS011;10484;48.736;9.332;2024-01-15T08:07:58;10.93;;;6.90;;
20649;SDS011;10484;48.736;9.332;2024-01-15T08:10:24;10.70;;;7.47;;
20649;SDS011;10484;48.736;9.332;2024-01-15T08:12:49;12.30;;;7.33;;
20649;SDS011;10484;48.736;9.332;2024-01-15T08:15:15;12.60;;;8.20;;
20649;SDS011;10484;48.736;9.332;2024-01-15T08:17:40;14.20;;;8.73;;
20649;SDS011;10484;48.736;9.332;2024-01-15T08:20:06;10.97;;;7.67;;
20649;SDS011;10484;48.736;9.332;2024-01-15T08:22:32;11.33;;;7.60;;
20649;SDS011;10484;48.736;9.332;2024-01-15T08:24:57;13.20;;;7.63;;
20649;SDS011;10484;48.736;9.332;2024-01-15T08:27:23;10.70;;;7.40;;
20649;SDS011;10484;48.736;9.332;2024-01-15T08:29:48;12.93;;;6.40;;
20649;SDS011;10484;48.736;9.332;2024-01-15T08:32:14;10.50;;;6.80;;
20649;SDS011;10484;48.736;9.332;2024-01-15T08:34:40;10.57;;;6.72;;
20649;SDS011;10484;48.736;9.332;2024-01-15T08:37:07;11.48;;;7.30;;
20649;SDS011;10484;48.736;9.332;2024-01-15T08:39:32;13.50;;;6.70;;
20649;SDS011;10484;48.736;9.332;2024-01-15T08:41:58;12.80;;;7.70;;
20649;SDS011;10484;48.736;9.332;2024-01-15T08:44:23;9.73;;;7.00;;
20649;SDS011;10484;48.736;9.332;2024-01-15T08:46:49;11.30;;;6.83;;
20649;SDS011;10484;48.736;9.332;2024-01-15T08:49:15;10.83;;;6.40;;
20649;SDS011;10484;48.736;9.332;2024-01-15T08:51:40;11.93;;;6.97;;
20649;SDS011;10484;48.736;9.332;2024-01-15T08:54:06;11.53;;;6.93;;
20649;SDS011;10484;48.736;9.332;2024-01-15T08:56:33;10.77;;;6.38;;
20649;SDS011;10484;48.736;9.332;2024-01-15T08:58:59;9.77;;;6.63;;
20649;SDS011;10484;48.736;9.332;2024-01-15T09:01:24;11.13;;;6.07;;
20649;SDS011;10484;48.736;9.332;2024-01-15T09:03:50;9.77;;;5.80;;
20649;SDS011;10484;48.736;9.332;2024-01-15T09:06:16;8.60;;;6.03;;
20649;SDS011;10484;48.736;9.332;2024-01-15T09:08:41;10.03;;;5.70;;
20649;SDS011;10484;48.736;9.332;2024-01-15T09:11:07;13.40;;;7.17;;
20649;SDS011;10484;48.736;9.332;2024-01-15T09:13:33;9.67;;;6.07;;
20649;SDS011;10484;48.736;9.332;2024-01-15T09:15:58;9.30;;;6.03;;
20649;SDS011;10484;48.736;9.332;2024-01-15T09:18:24;8.68;;;5.40;;
20649;SDS011;10484;48.736;9.332;2024-01-15T09:20:50;8.77;;;6.00;;
20649;SDS011;10484;48.736;9.332;2024-01-15T09:23:16;12.80;;;6.00;;
20649;SDS011;10484;48.736;9.332;2024-01-15T09:25:41;9.30;;;5.47;;
20649;SDS011;10484;48.736;9.332;2024-01-15T09:28:07;8.20;;;5.83;;
20649;SDS011;10484;48.736;9.332;2024-01-15T09:30:33;8.00;;;5.70;;
20649;SDS011;10484;48.736;9.332;2024-01-15T09:32:58;9.10;;;6.10;;
20649;SDS011;10484;48.736;9.332;2024-01-15T09:35:24;9.10;;;5.00;;
20649;SDS011;10484;48.736;9.332;2024-01-15T09:37:50;10.50;;;5.67;;
20649;SDS011;10484;48.736;9.332;2024-01-15T09:40:15;9.63;;;5.50;;
20649;SDS011;10484;48.736;9.332;2024-01-15T09:42:41;12.00;;;5.63;;
20649;SDS011;10484;48.736;9.332;2024-01-15T09:45:07;11.15;;;5.40;;
20649;SDS011;10484;48.736;9.332;2024-01-15T09:47:34;8.57;;;4.95;;
20649;SDS011;10484;48.736;9.332;2024-01-15T09:50:01;6.25;;;4.40;;
20649;SDS011;10484;48.736;9.332;2024-01-15T09:52:28;7.55;;;5.07;;
20649;SDS011;10484;48.736;9.332;2024-01-15T09:54:55;11.82;;;5.30;;
20649;SDS011;10484;48.736;9.332;2024-01-15T09:57:23;8.73;;;5.22;;
20649;SDS011;10484;48.736;9.332;2024-01-15T09:59:50;7.05;;;4.47;;
20649;SDS011;10484;48.736;9.332;2024-01-15T10:02:18;7.28;;;4.32;;
20649;SDS011;10484;48.736;9.332;2024-01-15T10:04:44;5.63;;;4.20;;
20649;SDS011;10484;48.736;9.332;2024-01-15T10:07:16;6.50;;;4.20;;
20649;SDS011;10484;48.736;9.332;2024-01-15T10:09:45;9.30;;;4.90;;
20649;SDS011;10484;48.736;9.332;2024-01-15T10:12:11;8.40;;;4.50;;
20649;SDS011;10484;48.736;9.332;2024-01-15T10:14:37;8.10;;;4.70;;
20649;SDS011;10484;48.736;9.332;2024-01-15T10:17:11;6.10;;;3.90;;
20649;SDS011;10484;48.736;9.332;2024-01-15T10:19:40;5.13;;;3.88;;
20649;SDS011;10484;48.736;9.332;2024-01-15T10:22:07;5.70;;;4.32;;
20649;SDS011;10484;48.736;9.332;2024-01-15T10:24:35;7.15;;;4.32;;
20649;SDS011;10484;48.736;9.332;2024-01-15T10:27:05;9.20;;;5.10;;
20649;SDS011;10484;48.736;9.332;2024-01-15T10:29:35;6.90;;;5.35;;
20649;SDS011;10484;48.736;9.332;2024-01-15T10:32:02;9.30;;;4.55;;
20649;SDS011;10484;48.736;9.332;2024-01-15T10:34:31;6.93;;;4.57;;
20649;SDS011;10484;48.736;9.332;2024-01-15T10:36:56;7.90;;;4.00;;
20649;SDS011;10484;48.736;9.332;2024-01-15T10:39:22;5.93;;;4.20;;
20649;SDS011;10484;48.736;9.332;2024-01-15T10:41:48;7.10;;;4.60;;
20649;SDS011;10484;48.736;9.332;2024-01-15T10:44:14;5.35;;;4.03;;
20649;SDS011;10484;48.736;9.332;2024-01-15T10:46:40;7.47;;;4.03;;
20649;SDS011;10484;48.736;9.332;2024-01-15T10:49:06;7.47;;;4.10;;
20649;SDS011;10484;48.736;9.332;2024-01-15T10:51:32;7.88;;;4.28;;
20649;SDS011;10484;48.736;9.332;2024-01-15T10:54:00;9.23;;;4.90;;
20649;SDS011;10484;48.736;9.332;2024-01-15T10:56:27;7.05;;;4.82;;
20649;SDS011;10484;48.736;9.332;2024-01-15T10:58:54;6.15;;;3.90;;
20649;SDS011;10484;48.736;9.332;2024-01-15T11:01:21;6.63;;;4.60;;
20649;SDS011;10484;48.736;9.332;2024-01-15T11:03:47;7.20;;;4.28;;
20649;SDS011;10484;48.736;9.332;2024-01-15T11:06:17;6.95;;;4.68;;
20649;SDS011;10484;48.736;9.332;2024-01-15T11:08:45;8.20;;;4.68;;
20649;SDS011;10484;48.736;9.332;2024-01-15T11:11:15;7.88;;;4.70;;
20649;SDS011;10484;48.736;9.332;2024-01-15T11:13:49;5.85;;;4.25;;
20649;SDS011;10484;48.736;9.332;2024-01-15T11:16:16;6.00;;;3.85;;
20649;SDS011;10484;48.736;9.332;2024-01-15T11:21:23;6.43;;;4.30;;
20649;SDS011;10484;48.736;9.332;2024-01-15T11:24:00;7.30;;;4.50;;
20649;SDS011;10484;48.736;9.332;2024-01-15T11:28:56;7.20;;;3.88;;
20649;SDS011;10484;48.736;9.332;2024-01-15T11:34:08;8.02;;;4.50;;
20649;SDS011;10484;48.736;9.332;2024-01-15T11:41:59;5.60;;;3.83;;
20649;SDS011;10484;48.736;9.332;2024-01-15T11:44:26;7.93;;;4.30;;
20649;SDS011;10484;48.736;9.332;2024-01-15T11:46:58;6.13;;;4.10;;
20649;SDS011;10484;48.736;9.332;2024-01-15T11:52:02;7.88;;;4.25;;
20649;SDS011;10484;48.736;9.332;2024-01-15T11:54:30;6.75;;;5.10;;
20649;SDS011;10484;48.736;9.332;2024-01-15T11:57:00;5.88;;;4.30;;
20649;SDS011;10484;48.736;9.332;2024-01-15T11:59:33;7.95;;;4.45;;
20649;SDS011;10484;48.736;9.332;2024-01-15T12:01:58;6.20;;;4.43;;
20649;SDS011;10484;48.736;9.332;2024-01-15T12:04:25;5.38;;;3.97;;
20649;SDS011;10484;48.736;9.332;2024-01-15T12:06:51;6.60;;;3.72;;
20649;SDS011;10484;48.736;9.332;2024-01-15T12:09:19;10.10;;;4.87;;
20649;SDS011;10484;48.736;9.332;2024-01-15T12:11:46;6.80;;;4.13;;
20649;SDS011;10484;48.736;9.332;2024-01-15T12:14:20;6.88;;;4.65;;
20649;SDS011;10484;48.736;9.332;2024-01-15T12:16:46;6.55;;;4.07;;
20649;SDS011;10484;48.736;9.332;2024-01-15T12:19:12;7.43;;;4.27;;
20649;SDS011;10484;48.736;9.332;2024-01-15T12:21:39;7.00;;;4.30;;
20649;SDS011;10484;48.736;9.332;2024-01-15T12:24:06;7.30;;;4.80;;
20649;SDS011;10484;48.736;9.332;2024-01-15T12:26:32;6.15;;;4.60;;
20649;SDS011;10484;48.736;9.332;2024-01-15T12:29:01;9.48;;;4.53;;
20649;SDS011;10484;48.736;9.332;2024-01-15T12:31:27;7.43;;;5.70;;
20649;SDS011;10484;48.736;9.332;2024-01-15T12:33:54;6.03;;;4.60;;
20649;SDS011;10484;48.736;9.332;2024-01-15T12:36:21;5.15;;;4.40;;
20649;SDS011;10484;48.736;9.332;2024-01-15T12:38:46;5.10;;;3.97;;
20649;SDS011;10484;48.736;9.332;2024-01-15T12:41:12;7.00;;;4.83;;
20649;SDS011;10484;48.736;9.332;2024-01-15T12:43:38;5.90;;;4.13;;
20649;SDS011;10484;48.736;9.332;2024-01-15T12:46:03;7.80;;;5.80;;
20649;SDS011;10484;48.736;9.332;2024-01-15T12:48:29;7.70;;;5.20;;
20649;SDS011;10484;48.736;9.332;2024-01-15T12:50:55;7.63;;;4.90;;
20649;SDS011;10484;48.736;9.332;2024-01-15T12:53:20;7.83;;;5.30;;
20649;SDS011;10484;48.736;9.332;2024-01-15T12:55:46;7.73;;;5.30;;
20649;SDS011;10484;48.736;9.332;2024-01-15T12:58:12;9.53;;;6.00;;
20649;SDS011;10484;48.736;9.332;2024-01-15T13:00:38;10.07;;;5.63;;
20649;SDS011;10484;48.736;9.332;2024-01-15T13:03:04;8.07;;;6.25;;
20649;SDS011;10484;48.736;9.332;2024-01-15T13:05:31;8.97;;;6.07;;
20649;SDS011;10484;48.736;9.332;2024-01-15T13:07:57;8.75;;;5.93;;
20649;SDS011;10484;48.736;9.332;2024-01-15T13:10:25;10.98;;;7.07;;
20649;SDS011;10484;48.736;9.332;2024-01-15T13:12:50;10.33;;;6.53;;
20649;SDS011;10484;48.736;9.332;2024-01-15T13:15:16;7.30;;;5.87;;
20649;SDS011;10484;48.736;9.332;2024-01-15T13:17:42;8.70;;;5.83;;
20649;SDS011;10484;48.736;9.332;2024-01-15T13:20:08;8.07;;;5.83;;
20649;SDS011;10484;48.736;9.332;2024-01-15T13:22:34;7.60;;;5.63;;
20649;SDS011;10484;48.736;9.332;2024-01-15T13:25:00;11.80;;;7.30;;
20649;SDS011;10484;48.736;9.332;2024-01-15T13:27:25;8.70;;;7.00;;
20649;SDS011;10484;48.736;9.332;2024-01-15T13:29:51;11.37;;;6.73;;
20649;SDS011;10484;48.736;9.332;2024-01-15T13:32:17;11.97;;;6.53;;
20649;SDS011;10484;48.736;9.332;2024-01-15T13:34:51;11.27;;;6.30;;
20649;SDS011;10484;48.736;9.332;2024-01-15T13:37:16;9.53;;;6.23;;
20649;SDS011;10484;48.736;9.332;2024-01-15T13:39:42;8.70;;;5.47;;
20649;SDS011;10484;48.736;9.332;2024-01-15T13:42:08;9.47;;;5.67;;
20649;SDS011;10484;48.736;9.332;2024-01-15T13:44:36;10.18;;;4.97;;
20649;SDS011;10484;48.736;9.332;2024-01-15T13:47:02;6.73;;;5.20;;
20649;SDS011;10484;48.736;9.332;2024-01-15T13:49:28;7.65;;;5.90;;
20649;SDS011;10484;48.736;9.332;2024-01-15T13:51:54;6.63;;;5.10;;
20649;SDS011;10484;48.736;9.332;2024-01-15T13:54:19;6.80;;;5.30;;
20649;SDS011;10484;48.736;9.332;2024-01-15T13:56:45;6.18;;;4.70;;
20649;SDS011;10484;48.736;9.332;2024-01-15T13:59:12;6.97;;;4.80;;
20649;SDS011;10484;48.736;9.332;2024-01-15T14:01:38;6.03;;;4.97;;
20649;SDS011;10484;48.736;9.332;2024-01-15T14:04:03;7.20;;;4.60;;
20649;SDS011;10484;48.736;9.332;2024-01-15T14:06:29;8.53;;;5.30;;
20649;SDS011;10484;48.736;9.332;2024-01-15T14:08:55;7.57;;;5.50;;
20649;SDS011;10484;48.736;9.332;2024-01-15T14:11:20;6.70;;;4.97;;
20649;SDS011;10484;48.736;9.332;2024-01-15T14:13:46;9.10;;;4.73;;
20649;SDS011;10484;48.736;9.332;2024-01-15T14:16:12;5.40;;;4.53;;
20649;SDS011;10484;48.736;9.332;2024-01-15T14:18:38;6.73;;;5.60;;
20649;SDS011;10484;48.736;9.332;2024-01-15T14:21:03;6.10;;;4.13;;
20649;SDS011;10484;48.736;9.332;2024-01-15T14:23:29;7.70;;;5.10;;
20649;SDS011;10484;48.736;9.332;2024-01-15T14:25:56;8.90;;;5.77;;
20649;SDS011;10484;48.736;9.332;2024-01-15T14:28:22;8.68;;;5.60;;
20649;SDS011;10484;48.736;9.332;2024-01-15T14:30:48;9.50;;;5.32;;
20649;SDS011;10484;48.736;9.332;2024-01-15T14:33:14;4.93;;;4.20;;
20649;SDS011;10484;48.736;9.332;2024-01-15T14:35:39;8.30;;;5.40;;
20649;SDS011;10484;48.736;9.332;2024-01-15T14:38:05;7.20;;;4.80;;
20649;SDS011;10484;48.736;9.332;2024-01-15T14:40:32;7.25;;;5.35;;
20649;SDS011;10484;48.736;9.332;2024-01-15T14:42:58;7.25;;;5.28;;
20649;SDS011;10484;48.736;9.332;2024-01-15T14:45:24;9.30;;;5.40;;